createdAt,value
2022-11-24T00:00:52.574Z,98631.69
2022-11-24T00:03:18.897Z,98626.63
2022-11-24T00:05:45.180Z,98630.28
2022-11-24T00:08:11.669Z,98629.06
2022-11-24T00:10:37.867Z,98635.59
2022-11-24T00:13:04.090Z,98635.34
2022-11-24T00:15:30.300Z,98629.63
2022-11-24T00:17:56.508Z,98628.38
2022-11-24T00:20:22.718Z,98629.13
2022-11-24T00:22:48.938Z,98628.06
2022-11-24T00:25:15.152Z,98635.59
2022-11-24T00:27:41.365Z,98631.69
2022-11-24T00:30:07.832Z,98634.81
2022-11-24T00:32:34.032Z,98631.84
2022-11-24T00:35:00.230Z,98635.19
2022-11-24T00:37:26.448Z,98636.81
2022-11-24T00:39:52.649Z,98643.53
2022-11-24T00:42:18.868Z,98638.00
2022-11-24T00:44:45.061Z,98645.19
2022-11-24T00:47:11.456Z,98643.94
2022-11-24T00:49:37.737Z,98646.41
2022-11-24T00:52:03.993Z,98664.22
2022-11-24T00:54:30.277Z,98659.78
2022-11-24T00:56:56.601Z,98656.97
2022-11-24T00:59:22.809Z,98653.94
2022-11-24T01:01:49.083Z,98654.84
2022-11-24T01:04:15.326Z,98643.19
2022-11-24T01:06:41.524Z,98644.53
2022-11-24T01:09:07.733Z,98648.22
2022-11-24T01:11:34.713Z,98646.09
2022-11-24T01:14:00.916Z,98651.72
2022-11-24T01:16:31.182Z,98654.06
2022-11-24T01:18:57.400Z,98659.44
2022-11-24T01:21:23.604Z,98661.31
2022-11-24T01:23:49.807Z,98659.38
2022-11-24T01:26:16.760Z,98659.13
2022-11-24T01:28:47.146Z,98660.06
2022-11-24T01:31:13.927Z,98664.84
2022-11-24T01:33:40.150Z,98663.41
2022-11-24T01:36:06.348Z,98664.44
2022-11-24T01:38:32.574Z,98663.75
2022-11-24T01:41:02.874Z,98660.72
2022-11-24T01:43:29.112Z,98669.44
2022-11-24T01:45:55.414Z,98667.97
2022-11-24T01:48:29.224Z,98664.69
2022-11-24T01:50:58.425Z,98667.19
2022-11-24T01:53:24.632Z,98669.00
2022-11-24T01:55:50.843Z,98663.91
2022-11-24T01:58:21.372Z,98670.38
2022-11-24T02:00:47.569Z,98667.47
2022-11-24T02:03:14.331Z,98674.69
2022-11-24T02:05:41.936Z,98674.84
2022-11-24T02:08:10.136Z,98682.94
2022-11-24T02:10:36.332Z,98673.66
2022-11-24T02:13:02.541Z,98679.28
2022-11-24T02:15:28.883Z,98680.53
2022-11-24T02:17:55.185Z,98673.97
2022-11-24T02:20:21.409Z,98678.31
2022-11-24T02:22:53.111Z,98677.44
2022-11-24T02:25:25.435Z,98680.44
2022-11-24T02:27:54.092Z,98676.66
2022-11-24T02:30:20.567Z,98670.91
2022-11-24T02:32:46.774Z,98682.09
2022-11-24T02:35:13.209Z,98684.13
2022-11-24T02:37:39.413Z,98687.84
2022-11-24T02:40:05.892Z,98677.50
2022-11-24T02:42:33.296Z,98685.56
2022-11-24T02:44:59.785Z,98691.13
2022-11-24T02:47:25.993Z,98691.13
2022-11-24T02:49:52.210Z,98684.25
2022-11-24T02:52:18.408Z,98678.56
2022-11-24T02:54:44.614Z,98686.34
2022-11-24T02:57:10.832Z,98682.22
2022-11-24T02:59:37.117Z,98691.03
2022-11-24T03:02:03.377Z,98685.34
2022-11-24T03:04:29.678Z,98682.53
2022-11-24T03:06:55.883Z,98677.16
2022-11-24T03:09:22.090Z,98677.25
2022-11-24T03:11:48.302Z,98679.66
2022-11-24T03:14:14.516Z,98681.78
2022-11-24T03:16:40.713Z,98679.00
2022-11-24T03:19:06.925Z,98677.97
2022-11-24T03:21:33.121Z,98675.72
2022-11-24T03:23:59.323Z,98678.84
2022-11-24T03:26:25.550Z,98677.28
2022-11-24T03:28:55.050Z,98684.38
2022-11-24T03:31:21.296Z,98682.75
2022-11-24T03:33:47.730Z,98680.69
2022-11-24T03:36:13.924Z,98680.41
2022-11-24T03:38:40.138Z,98679.16
2022-11-24T03:41:06.343Z,98690.16
2022-11-24T03:43:32.567Z,98685.41
2022-11-24T03:45:58.839Z,98686.88
2022-11-24T03:48:25.073Z,98685.06
2022-11-24T03:50:58.123Z,98686.88
2022-11-24T03:53:24.816Z,98681.41
2022-11-24T03:55:51.032Z,98689.56
2022-11-24T03:58:17.232Z,98683.38
2022-11-24T04:00:43.452Z,98687.53
2022-11-24T04:03:09.690Z,98687.06
2022-11-24T04:05:35.971Z,98687.84
2022-11-24T04:08:02.591Z,98685.25
2022-11-24T04:10:29.004Z,98692.25
2022-11-24T04:12:55.206Z,98695.31
2022-11-24T04:15:21.544Z,98694.03
2022-11-24T04:17:47.978Z,98698.06
2022-11-24T04:20:14.343Z,98695.41
2022-11-24T04:22:40.552Z,98691.66
2022-11-24T04:25:07.182Z,98697.28
2022-11-24T04:27:33.594Z,98694.94
2022-11-24T04:29:59.817Z,98689.47
2022-11-24T04:32:26.025Z,98696.41
2022-11-24T04:34:52.237Z,98702.13
2022-11-24T04:37:18.446Z,98702.13
2022-11-24T04:39:44.648Z,98703.44
2022-11-24T04:42:10.853Z,98702.50
2022-11-24T04:44:37.324Z,98705.06
2022-11-24T04:47:03.729Z,98705.06
2022-11-24T04:49:30.009Z,98706.97
2022-11-24T04:51:56.214Z,98706.88
2022-11-24T04:54:22.424Z,98706.88
2022-11-24T04:56:51.816Z,98706.63
2022-11-24T04:59:18.119Z,98712.13
2022-11-24T05:01:44.732Z,98704.06
2022-11-24T05:04:11.364Z,98712.34
2022-11-24T05:06:37.876Z,98710.88
2022-11-24T05:09:04.200Z,98720.41
2022-11-24T05:11:30.417Z,98722.19
2022-11-24T05:13:56.631Z,98717.50
2022-11-24T05:16:22.893Z,98726.56
2022-11-24T05:18:49.108Z,98731.00
2022-11-24T05:21:15.324Z,98737.72
2022-11-24T05:23:41.515Z,98736.72
2022-11-24T05:26:07.740Z,98730.25
2022-11-24T05:28:33.939Z,98735.84
2022-11-24T05:31:00.715Z,98742.56
2022-11-24T05:33:27.032Z,98740.22
2022-11-24T05:35:53.236Z,98740.13
2022-11-24T05:38:19.442Z,98747.06
2022-11-24T05:40:45.652Z,98747.06
2022-11-24T05:43:12.339Z,98752.09
2022-11-24T05:45:38.559Z,98749.50
2022-11-24T05:48:05.529Z,98749.75
2022-11-24T05:50:31.753Z,98752.75
2022-11-24T05:53:01.446Z,98754.72
2022-11-24T05:55:27.655Z,98754.16
2022-11-24T05:58:00.290Z,98750.09
2022-11-24T06:00:26.509Z,98748.88
2022-11-24T06:02:52.786Z,98759.16
2022-11-24T06:05:19.043Z,98765.53
2022-11-24T06:07:45.324Z,98766.06
2022-11-24T06:10:11.563Z,98767.41
2022-11-24T06:12:37.766Z,98761.16
2022-11-24T06:15:04.112Z,98766.63
2022-11-24T06:17:30.329Z,98764.31
2022-11-24T06:19:56.550Z,98775.66
2022-11-24T06:22:22.772Z,98775.97
2022-11-24T06:24:48.968Z,98778.25
2022-11-24T06:27:15.175Z,98779.03
2022-11-24T06:29:41.398Z,98781.13
2022-11-24T06:32:07.662Z,98779.19
2022-11-24T06:34:34.204Z,98780.50
2022-11-24T06:37:00.625Z,98786.38
2022-11-24T06:39:26.826Z,98789.50
2022-11-24T06:41:53.045Z,98788.25
2022-11-24T06:44:19.257Z,98789.66
2022-11-24T06:46:45.471Z,98787.63
2022-11-24T06:49:11.673Z,98791.81
2022-11-24T06:51:37.875Z,98797.91
2022-11-24T06:54:07.469Z,98801.50
2022-11-24T06:56:33.718Z,98802.38
2022-11-24T06:59:00.045Z,98811.22
2022-11-24T07:01:26.812Z,98815.06
2022-11-24T07:03:53.366Z,98822.66
2022-11-24T07:06:19.725Z,98823.75
2022-11-24T07:08:46.109Z,98831.03
2022-11-24T07:11:14.347Z,98832.91
2022-11-24T07:13:40.557Z,98825.25
2022-11-24T07:16:12.970Z,98821.78
2022-11-24T07:18:39.239Z,98829.06
2022-11-24T07:21:05.518Z,98833.84
2022-11-24T07:23:31.709Z,98834.06
2022-11-24T07:26:00.178Z,98833.84
2022-11-24T07:28:29.961Z,98837.19
2022-11-24T07:30:56.184Z,98836.53
2022-11-24T07:33:22.447Z,98840.13
2022-11-24T07:35:48.668Z,98839.34
2022-11-24T07:38:14.877Z,98852.53
2022-11-24T07:40:41.088Z,98850.75
2022-11-24T07:43:07.281Z,98856.22
2022-11-24T07:45:33.517Z,98858.94
2022-11-24T07:47:59.751Z,98862.06
2022-11-24T07:50:26.030Z,98865.03
2022-11-24T07:52:52.268Z,98864.81
2022-11-24T07:55:18.491Z,98872.00
2022-11-24T07:57:44.712Z,98871.13
2022-11-24T08:00:11.255Z,98876.53
2022-11-24T08:02:37.480Z,98863.94
2022-11-24T08:05:03.746Z,98864.50
2022-11-24T08:07:29.990Z,98854.06
2022-11-24T08:09:56.197Z,98856.41
2022-11-24T08:12:22.428Z,98869.28
2022-11-24T08:14:49.263Z,98875.00
2022-11-24T08:17:15.485Z,98885.59
2022-11-24T08:19:41.684Z,98888.44
2022-11-24T08:22:07.885Z,98880.44
2022-11-24T08:24:34.259Z,98888.16
2022-11-24T08:27:00.618Z,98899.25
2022-11-24T08:29:30.102Z,98898.19
2022-11-24T08:31:56.591Z,98899.25
2022-11-24T08:34:23.931Z,98895.00
2022-11-24T08:36:50.575Z,98905.38
2022-11-24T08:39:16.818Z,98895.19
2022-11-24T08:41:43.022Z,98898.06
2022-11-24T08:44:09.234Z,98893.22
2022-11-24T08:46:35.540Z,98898.38
2022-11-24T08:49:01.813Z,98899.19
2022-11-24T08:51:28.016Z,98910.88
2022-11-24T08:53:57.407Z,98918.84
2022-11-24T08:56:23.725Z,98931.91
2022-11-24T08:58:50.027Z,98941.19
2022-11-24T09:01:16.532Z,98939.66
2022-11-24T09:03:48.519Z,98944.53
2022-11-24T09:06:16.753Z,98955.75
2022-11-24T09:08:42.969Z,98956.97
2022-11-24T09:11:09.913Z,98963.88
2022-11-24T09:13:36.390Z,98961.31
2022-11-24T09:16:03.328Z,98971.66
2022-11-24T09:18:30.502Z,98966.63
2022-11-24T09:21:05.757Z,98967.25
2022-11-24T09:23:31.981Z,98973.19
2022-11-24T09:26:02.986Z,98979.91
2022-11-24T09:28:29.279Z,98985.16
2022-11-24T09:30:55.566Z,98982.56
2022-11-24T09:33:21.830Z,98986.22
2022-11-24T09:35:49.654Z,98984.97
2022-11-24T09:38:15.892Z,98989.38
2022-11-24T09:40:42.108Z,98992.25
2022-11-24T09:43:08.338Z,98992.25
2022-11-24T09:46:11.193Z,98995.25
2022-11-24T09:48:41.326Z,99010.66
2022-11-24T09:51:09.494Z,99013.00
2022-11-24T09:53:49.208Z,99024.25
2022-11-24T09:56:22.211Z,99034.75
2022-11-24T09:58:49.194Z,99027.78
2022-11-24T10:01:17.153Z,99036.78
2022-11-24T10:03:49.759Z,99036.78
2022-11-24T10:06:18.788Z,99038.91
2022-11-24T10:08:45.061Z,99032.56
2022-11-24T10:11:19.783Z,99036.00
2022-11-24T10:14:08.390Z,99037.31
2022-11-24T10:16:44.277Z,99040.38
2022-11-24T10:19:36.420Z,99038.34
2022-11-24T10:22:09.056Z,99034.75
2022-11-24T10:24:51.737Z,99032.78
2022-11-24T10:27:18.566Z,99031.22
2022-11-24T10:29:45.054Z,99030.50
2022-11-24T10:32:15.956Z,99033.56
2022-11-24T10:34:43.664Z,99036.28
2022-11-24T10:37:18.112Z,99036.13
2022-11-24T10:39:44.268Z,99039.25
2022-11-24T10:42:29.281Z,99031.78
2022-11-24T10:44:59.017Z,99046.75
2022-11-24T10:47:25.217Z,99041.59
2022-11-24T10:49:54.137Z,99038.53
2022-11-24T10:52:20.361Z,99044.63
2022-11-24T10:54:56.661Z,99038.47
2022-11-24T10:57:32.912Z,99045.97
2022-11-24T10:59:59.348Z,99041.88
2022-11-24T11:02:29.579Z,99037.84
2022-11-24T11:04:55.849Z,99045.13
2022-11-24T11:07:22.988Z,99048.84
2022-11-24T11:09:49.238Z,99046.81
2022-11-24T11:15:29.513Z,99048.72
2022-11-24T11:17:56.744Z,99048.00
2022-11-24T11:20:26.318Z,99048.84
2022-11-24T11:22:52.525Z,99056.38
2022-11-24T11:25:20.105Z,99057.47
2022-11-24T11:27:46.313Z,99057.69
2022-11-24T11:35:47.875Z,99071.47
2022-11-24T11:38:14.081Z,99078.19
2022-11-24T11:40:40.288Z,99090.31
2022-11-24T11:43:10.065Z,99100.50
2022-11-24T11:45:36.910Z,99112.16
2022-11-24T11:48:03.209Z,99112.88
2022-11-24T11:50:52.995Z,99120.16
2022-11-24T11:53:29.515Z,99116.31
2022-11-24T11:56:01.694Z,99130.03
2022-11-24T11:58:34.010Z,99128.75
2022-11-24T12:01:05.900Z,99139.19
2022-11-24T12:03:35.142Z,99142.06
2022-11-24T12:06:06.050Z,99146.75
2022-11-24T12:09:26.282Z,99159.38
2022-11-24T12:11:58.531Z,99156.38
2022-11-24T12:14:53.799Z,99152.88
2022-11-24T12:17:34.568Z,99156.72
2022-11-24T12:20:13.321Z,99160.91
2022-11-24T12:22:42.542Z,99168.66
2022-11-24T12:25:24.364Z,99169.28
2022-11-24T12:27:54.245Z,99168.56
2022-11-24T12:30:20.635Z,99164.31
2022-11-24T12:33:02.138Z,99172.41
2022-11-24T12:35:40.245Z,99181.81
2022-11-24T12:38:15.757Z,99207.34
2022-11-24T12:43:50.911Z,99225.97
2022-11-24T12:46:36.055Z,99236.06
2022-11-24T12:49:11.109Z,99250.13
2022-11-24T12:51:41.345Z,99260.50
2022-11-24T12:54:10.340Z,99271.75
2022-11-24T12:56:43.446Z,99288.03
2022-11-24T12:59:18.052Z,99283.78
2022-11-24T13:01:47.501Z,99287.19
2022-11-24T13:04:17.909Z,99294.72
2022-11-24T13:06:49.433Z,99303.69
2022-11-24T13:09:16.017Z,99302.13
2022-11-24T13:11:43.006Z,99312.50
2022-11-24T13:14:16.099Z,99319.22
2022-11-24T13:20:05.750Z,99333.97
2022-11-24T13:22:31.953Z,99337.22
2022-11-24T13:25:11.441Z,99334.94
2022-11-24T13:27:41.655Z,99342.75
2022-11-24T13:30:28.246Z,99343.00
2022-11-24T13:33:01.153Z,99332.94
2022-11-24T13:35:27.382Z,99336.66
2022-11-24T13:37:53.607Z,99328.66
2022-11-24T13:40:23.018Z,99312.13
2022-11-24T13:42:55.492Z,99325.34
2022-11-24T13:45:34.458Z,99334.66
2022-11-24T13:48:00.661Z,99341.41
2022-11-24T13:50:45.397Z,99345.78
2022-11-24T13:53:15.357Z,99342.53
2022-11-24T13:55:41.557Z,99353.13
2022-11-24T13:58:13.901Z,99346.91
2022-11-24T14:00:58.722Z,99357.81
2022-11-24T14:03:32.130Z,99360.06
2022-11-24T14:05:58.334Z,99358.50
2022-11-24T14:08:24.525Z,99362.91
2022-11-24T14:10:50.725Z,99355.91
2022-11-24T14:13:16.883Z,99355.13
2022-11-24T14:15:43.132Z,99358.28
2022-11-24T14:18:29.618Z,99359.00
2022-11-24T14:20:56.133Z,99361.84
2022-11-24T14:23:22.361Z,99355.88
2022-11-24T14:25:48.897Z,99351.94
2022-11-24T14:28:15.328Z,99350.47
2022-11-24T14:30:41.604Z,99360.81
2022-11-24T14:33:10.076Z,99355.88
2022-11-24T14:35:42.574Z,99364.09
2022-11-24T14:38:08.788Z,99361.53
2022-11-24T14:40:51.100Z,99367.47
2022-11-24T14:43:18.763Z,99364.34
2022-11-24T14:45:48.988Z,99363.78
2022-11-24T14:48:16.037Z,99368.97
2022-11-24T14:50:42.336Z,99366.38
2022-11-24T14:53:10.998Z,99370.19
2022-11-24T14:55:37.199Z,99373.56
2022-11-24T14:58:03.413Z,99373.25
2022-11-24T15:00:30.490Z,99375.84
2022-11-24T15:03:05.895Z,99369.66
2022-11-24T15:05:51.340Z,99366.53
2022-11-24T15:08:17.545Z,99367.78
2022-11-24T15:10:43.743Z,99371.16
2022-11-24T15:13:16.933Z,99366.28
2022-11-24T15:15:45.903Z,99366.78
2022-11-24T15:18:29.780Z,99369.06
2022-11-24T15:20:55.990Z,99368.38
2022-11-24T15:23:26.318Z,99366.53
2022-11-24T15:26:12.763Z,99369.59
2022-11-24T15:28:38.981Z,99367.78
2022-11-24T15:31:05.946Z,99371.41
2022-11-24T15:33:32.222Z,99373.97
2022-11-24T15:35:59.021Z,99363.41
2022-11-24T15:38:25.222Z,99368.88
2022-11-24T15:40:52.066Z,99368.63
2022-11-24T15:43:19.407Z,99364.25
2022-11-24T15:45:45.601Z,99372.78
2022-11-24T15:48:17.537Z,99364.78
2022-11-24T15:50:44.540Z,99367.13
2022-11-24T15:53:15.520Z,99362.97
2022-11-24T15:55:41.727Z,99367.06
2022-11-24T15:58:08.566Z,99369.41
2022-11-24T16:00:34.829Z,99369.91
2022-11-24T16:03:18.040Z,99364.00
2022-11-24T16:05:47.657Z,99368.94
2022-11-24T16:08:14.343Z,99369.19
2022-11-24T16:10:40.624Z,99364.25
2022-11-24T16:13:06.840Z,99362.16
2022-11-24T16:15:33.057Z,99356.19
2022-11-24T16:17:59.271Z,99358.28
2022-11-24T16:20:25.494Z,99362.66
2022-11-24T16:22:51.700Z,99365.75
2022-11-24T16:25:17.940Z,99361.38
2022-11-24T16:27:44.154Z,99370.38
2022-11-24T16:30:10.760Z,99371.16
2022-11-24T16:32:36.961Z,99374.22
2022-11-24T16:35:03.408Z,99368.47
2022-11-24T16:37:29.614Z,99368.03
2022-11-24T16:39:55.832Z,99368.56
2022-11-24T16:42:22.036Z,99369.38
2022-11-24T16:44:48.257Z,99371.84
2022-11-24T16:47:14.474Z,99373.19
2022-11-24T16:49:40.676Z,99378.03
2022-11-24T16:52:06.881Z,99377.34
2022-11-24T16:54:33.497Z,99380.41
2022-11-24T16:56:59.877Z,99386.38
2022-11-24T16:59:26.083Z,99372.84
2022-11-24T17:01:52.421Z,99368.94
2022-11-24T17:04:18.742Z,99364.53
2022-11-24T17:06:44.948Z,99368.94
2022-11-24T17:09:11.163Z,99361.97
2022-11-24T17:11:37.379Z,99370.50
2022-11-24T17:14:03.583Z,99356.47
2022-11-24T17:16:29.906Z,99357.47
2022-11-24T17:18:56.143Z,99361.72
2022-11-24T17:21:23.012Z,99349.38
2022-11-24T17:23:52.787Z,99353.72
2022-11-24T17:26:19.006Z,99357.44
2022-11-24T17:28:45.204Z,99360.81
2022-11-24T17:31:20.025Z,99344.41
2022-11-24T17:33:46.258Z,99356.09
2022-11-24T17:36:12.476Z,99364.31
2022-11-24T17:38:38.687Z,99348.94
2022-11-24T17:41:04.935Z,99356.19
2022-11-24T17:43:31.153Z,99351.53
2022-11-24T17:45:59.198Z,99339.09
2022-11-24T17:48:25.488Z,99344.94
2022-11-24T17:50:58.484Z,99343.38
2022-11-24T17:53:24.681Z,99337.66
2022-11-24T17:55:50.895Z,99341.81
2022-11-24T17:58:17.092Z,99343.38
2022-11-24T18:00:43.385Z,99331.47
2022-11-24T18:03:09.615Z,99331.47
2022-11-24T18:05:36.003Z,99335.22
2022-11-24T18:08:02.253Z,99335.59
2022-11-24T18:10:28.463Z,99343.34
2022-11-24T18:12:54.678Z,99347.09
2022-11-24T18:15:20.888Z,99349.09
2022-11-24T18:17:47.086Z,99350.38
2022-11-24T18:20:13.338Z,99352.19
2022-11-24T18:25:25.748Z,99367.06
2022-11-24T18:27:51.946Z,99368.81
2022-11-24T18:30:18.148Z,99364.66
2022-11-24T18:32:44.348Z,99372.72
2022-11-24T18:35:10.565Z,99372.88
2022-11-24T18:37:36.764Z,99370.53
2022-11-24T18:40:03.007Z,99373.09
2022-11-24T18:42:29.233Z,99373.75
2022-11-24T18:44:55.441Z,99367.13
2022-11-24T18:47:21.650Z,99371.78
2022-11-24T18:49:47.842Z,99365.59
2022-11-24T18:52:14.045Z,99368.59
2022-11-24T18:54:40.236Z,99365.91
2022-11-24T18:57:06.437Z,99367.72
2022-11-24T18:59:32.635Z,99360.19
2022-11-24T19:01:58.859Z,99357.38
2022-11-24T19:04:25.106Z,99354.47
2022-11-24T19:06:51.324Z,99357.69
2022-11-24T19:09:17.695Z,99358.38
2022-11-24T19:11:44.296Z,99354.56
2022-11-24T19:14:11.950Z,99354.47
2022-11-24T19:16:38.275Z,99356.16
2022-11-24T19:19:04.566Z,99376.97
2022-11-24T19:21:31.019Z,99371.22
2022-11-24T19:24:02.892Z,99376.97
2022-11-24T19:26:30.963Z,99375.97
2022-11-24T19:28:57.163Z,99372.28
2022-11-24T19:31:23.430Z,99383.34
2022-11-24T19:33:49.650Z,99377.88
2022-11-24T19:36:19.261Z,99382.81
2022-11-24T19:38:49.123Z,99390.09
2022-11-24T19:41:15.338Z,99385.13
2022-11-24T19:43:41.626Z,99401.56
2022-11-24T19:46:08.605Z,99407.25
2022-11-24T19:48:38.548Z,99408.56
2022-11-24T19:51:05.619Z,99404.22
2022-11-24T19:53:31.852Z,99414.22
2022-11-24T19:56:08.268Z,99418.38
2022-11-24T19:58:34.511Z,99416.69
2022-11-24T20:01:13.728Z,99426.41
2022-11-24T20:03:40.103Z,99427.13
2022-11-24T20:06:06.835Z,99419.16
2022-11-24T20:08:33.336Z,99422.34
2022-11-24T20:11:09.288Z,99421.56
2022-11-24T20:13:35.719Z,99414.72
2022-11-24T20:16:05.549Z,99391.06
2022-11-24T20:18:31.823Z,99366.53
2022-11-24T20:21:01.867Z,99342.72
2022-11-24T20:23:28.091Z,99329.72
2022-11-24T20:25:54.297Z,99320.72
2022-11-24T20:28:20.500Z,99307.50
2022-11-24T20:30:46.713Z,99316.53
2022-11-24T20:33:12.940Z,99303.91
2022-11-24T20:35:39.144Z,99302.81
2022-11-24T20:38:05.384Z,99309.31
2022-11-24T20:40:31.595Z,99303.91
2022-11-24T20:42:57.821Z,99299.31
2022-11-24T20:45:24.101Z,99301.38
2022-11-24T20:47:50.359Z,99301.91
2022-11-24T20:50:16.567Z,99302.25
2022-11-24T20:52:42.773Z,99298.06
2022-11-24T20:55:09.194Z,99306.84
2022-11-24T20:57:35.409Z,99304.25
2022-11-24T21:00:01.602Z,99304.91
2022-11-24T21:02:27.847Z,99303.34
2022-11-24T21:04:54.085Z,99308.66
2022-11-24T21:07:20.337Z,99314.06
2022-11-24T21:09:46.586Z,99310.03
2022-11-24T21:12:12.796Z,99319.00
2022-11-24T21:14:39.183Z,99322.81
2022-11-24T21:17:05.544Z,99327.66
2022-11-24T21:19:31.746Z,99332.25
2022-11-24T21:21:57.985Z,99335.41
2022-11-24T21:24:24.175Z,99340.59
2022-11-24T21:26:50.932Z,99338.78
2022-11-24T21:29:17.127Z,99338.00
2022-11-24T21:31:43.404Z,99327.66
2022-11-24T21:34:09.644Z,99334.06
2022-11-24T21:36:35.841Z,99336.44
2022-11-24T21:39:02.267Z,99330.00
2022-11-24T21:41:28.673Z,99339.22
2022-11-24T21:43:54.898Z,99341.81
2022-11-24T21:46:21.172Z,99342.75
2022-11-24T21:48:47.427Z,99342.50
2022-11-24T21:51:14.425Z,99341.97
2022-11-24T21:53:40.645Z,99340.72
2022-11-24T21:56:07.615Z,99339.38
2022-11-24T21:58:33.853Z,99333.44
2022-11-24T22:01:06.869Z,99325.66
2022-11-24T22:03:33.095Z,99330.59
2022-11-24T22:05:59.576Z,99334.94
2022-11-24T22:08:26.042Z,99338.53
2022-11-24T22:10:52.236Z,99331.34
2022-11-24T22:13:18.786Z,99331.00
2022-11-24T22:15:45.067Z,99330.44
2022-11-24T22:18:11.430Z,99337.19
2022-11-24T22:20:37.816Z,99334.81
2022-11-24T22:23:04.088Z,99339.91
2022-11-24T22:25:30.301Z,99333.97
2022-11-24T22:27:56.525Z,99332.94
2022-11-24T22:30:25.107Z,99332.63
2022-11-24T22:32:51.333Z,99336.22
2022-11-24T22:35:17.546Z,99333.00
2022-11-24T22:37:43.780Z,99335.81
2022-11-24T22:40:10.141Z,99338.88
2022-11-24T22:42:36.347Z,99333.69
2022-11-24T22:45:02.548Z,99329.78
2022-11-24T22:47:28.743Z,99330.81
2022-11-24T22:49:54.980Z,99335.16
2022-11-24T22:52:21.180Z,99328.13
2022-11-24T22:54:47.388Z,99345.34
2022-11-24T22:57:13.588Z,99341.75
2022-11-24T22:59:39.871Z,99350.16
2022-11-24T23:02:06.171Z,99353.75
2022-11-24T23:04:32.506Z,99349.38
2022-11-24T23:06:58.753Z,99347.25
2022-11-24T23:09:24.974Z,99342.31
2022-11-24T23:11:51.183Z,99334.78
2022-11-24T23:14:17.426Z,99346.16
2022-11-24T23:16:43.748Z,99337.16
2022-11-24T23:19:10.104Z,99346.94
2022-11-24T23:21:36.398Z,99354.38
2022-11-24T23:24:02.876Z,99348.88
2022-11-24T23:26:29.902Z,99354.38
2022-11-24T23:28:56.121Z,99351.44
2022-11-24T23:31:23.246Z,99352.25
2022-11-24T23:33:49.478Z,99353.59
2022-11-24T23:36:16.519Z,99348.88
2022-11-24T23:38:42.835Z,99349.09
2022-11-24T23:41:09.936Z,99356.63
2022-11-24T23:43:36.542Z,99355.81
2022-11-24T23:46:06.618Z,99359.88
2022-11-24T23:48:32.923Z,99357.75
2022-11-24T23:51:05.786Z,99367.53
2022-11-24T23:53:35.123Z,99365.97
2022-11-24T23:56:01.414Z,99361.81
2022-11-24T23:58:27.686Z,99374.19
